ISABELLA DAM (ISB)

Elevation: 2635' · KERN R basin · Operator: US Army Corps of Engineers

Provisional data, subject to change.
Query executed Saturday at 5:06:15   clock

Select a sensor type for a plot of data.
Note: Reservoir Flows are daily averages.

Earlier

Date RES ELE    STORAGE    RES CHG    TOC STO    ABV TOC    OUTFLOW    INFLOW    FNF    PPT INC    PPTINC4    TEMP MN    TEMP MX    WINDLEN    EVP PAN   
 FEET   AF   AF   AF   AF   CFS   CFS   CFS   INCHES   INCHES   DEG F   DEG F   MILES   INCHES  
08/06/2015 2523.67 32521 -55 361250 -328729 115 105 105 0.00 0.00 18 36 116 0.27
08/07/2015 2523.65 32484 -37 361250 -328766 104 108 108 0.00 0.00 21 33 150 0.37
08/08/2015 2523.63 32447 -37 361250 -328803 99 102 102 0.00 0.00 16 34 124 0.34
08/09/2015 2523.60 32391 -56 361250 -328859 100 94 94 0.00 0.00 18 37 111 0.34
08/10/2015 2523.58 32354 -37 361250 -328896 95 98 98 0.00 0.00 19 35 122 0.35
08/11/2015 2523.54 32280 -74 361250 -328970 95 80 80 0.00 0.00 18 34 118 0.34
08/12/2015 2523.51 32225 -55 361250 -329025 95 90 90 0.00 0.00 16 38 121 0.36
08/13/2015 2523.47 32151 -74 361250 -329099 104 88 88 0.00 0.00 17 39 125 0.35
08/14/2015 2523.43 32078 -73 361250 -329172 106 93 93 0.00 0.00 20 38 147 0.37
08/15/2015 2523.40 32023 -55 361250 -329227 87 83 83 0.00 0.00 19 39 134 0.37
08/16/2015 2523.38 31986 -37 361250 -329264 74 78 78 0.00 0.00 19 40 114 0.36
08/17/2015 2523.34 31913 -73 361250 -329337 87 76 76 0.00 0.00 22 40 147 0.40
08/18/2015 2523.28 31803 -110 361250 -329447 96 66 66 0.00 0.00 25 38 175 0.41
08/19/2015 2523.22 31694 -109 361250 -329556 95 65 65 0.00 0.00 24 36 173 0.39
08/20/2015 2523.16 31585 -109 361250 -329665 82 54 54 0.00 0.00 23 36 223 0.43
08/21/2015 2523.14 31549 -36 361250 -329701 66 71 71 0.00 0.00 22 34 178 0.37
08/22/2015 2523.13 31531 -18 361250 -329719 60 73 73 0.00 0.00 21 36 162 0.37
08/23/2015 2523.12 31513 -18 361250 -329737 60 72 72 0.00 0.00 16 38 131 0.35
08/24/2015 2523.10 31476 -37 361250 -329774 63 66 66 0.00 0.00 18 38 133 0.35
08/25/2015 2523.09 31458 -18 361250 -329792 65 73 73 0.00 0.00 19 36 105 0.27
08/26/2015 2523.06 31404 -- 361250 -329846 65 64 64 0.00 0.00 25 37 223 0.42
08/27/2015 2523.04 31368 -36 361250 -329882 65 68 68 0.00 0.00 20 38 130 0.34
08/28/2015 2523.03 31350 -18 361250 -329900 65 76 76 0.00 0.00 19 39 110 0.33
08/29/2015 2523.00 31296 -54 361250 -329954 65 60 60 0.00 0.00 23 35 166 0.36
08/30/2015 2522.96 31224 -72 361250 -330026 65 49 49 0.00 0.00 20 30 235 0.34
08/31/2015 2522.94 31188 -36 361250 -330062 65 68 68 0.00 0.00 17 34 144 0.32
09/01/2015 2522.93 31170 -18 361250 -330080 65 76 87 0.00 0.00 15 35 118 0.31
09/02/2015 2522.91 31134 -36 361250 -330116 65 68 68 0.00 0.00 19 34 130 0.32
09/03/2015 2522.88 31080 -54 361250 -330170 65 59 59 0.00 0.00 17 34 150 0.32
09/04/2015 2522.85 31026 -54 361250 -- 65 56 -- 0.00 0.00 16 29 131 0.28
09/05/2015 -- -- -- -- -- -- -- -- -- -- -- -- -- --

Later | Latest

Warning! This data is preliminary and subject to revision.

Show ISB Map | Plot ISB Data | 1 Month ISB Data | Real-Time ISB Data | ISB Info